createdAt,value
2019-03-05T00:00:51.356Z,7.10
2019-03-05T00:03:20.761Z,7.20
2019-03-05T00:05:49.687Z,7.20
2019-03-05T00:08:18.877Z,7.30
2019-03-05T00:10:47.912Z,7.30
2019-03-05T00:13:16.869Z,7.30
2019-03-05T00:15:47.684Z,7.30
2019-03-05T00:18:17.047Z,7.30
2019-03-05T00:20:46.287Z,7.40
2019-03-05T00:23:19.891Z,7.40
2019-03-05T00:25:48.978Z,7.40
2019-03-05T00:28:42.422Z,7.40
2019-03-05T00:31:19.982Z,7.40
2019-03-05T00:34:28.974Z,7.40
2019-03-05T00:37:12.258Z,7.40
2019-03-05T00:40:01.563Z,7.40
2019-03-05T00:42:59.564Z,7.50
2019-03-05T00:45:51.794Z,7.40
2019-03-05T00:48:45.447Z,7.40
2019-03-05T00:51:51.307Z,7.50
2019-03-05T00:54:50.918Z,7.50
2019-03-05T00:57:30.740Z,7.50
2019-03-05T01:00:10.418Z,7.50
2019-03-05T01:03:04.178Z,7.50
2019-03-05T01:06:23.480Z,7.50
2019-03-05T01:08:53.464Z,7.50
2019-03-05T01:35:35.843Z,7.50
2019-03-05T01:38:19.623Z,7.40
2019-03-05T01:43:51.052Z,7.50
2019-03-05T01:49:23.757Z,7.40
2019-03-05T01:54:54.898Z,7.30
2019-03-05T01:57:24.266Z,7.10
2019-03-05T02:00:12.582Z,7.10
2019-03-05T02:03:00.848Z,6.90
2019-03-05T02:09:12.458Z,6.80
2019-03-05T02:14:43.936Z,6.60
2019-03-05T02:17:13.414Z,6.40
2019-03-05T02:19:47.345Z,6.40
2019-03-05T02:22:19.894Z,6.30
2019-03-05T02:25:32.536Z,6.30
2019-03-05T02:29:06.118Z,6.30
2019-03-05T02:32:12.560Z,6.20
2019-03-05T02:35:35.542Z,6.20
2019-03-05T02:38:22.760Z,6.20
2019-03-05T02:41:12.392Z,6.20
2019-03-05T02:44:12.553Z,6.20
2019-03-05T02:46:54.983Z,6.30
2019-03-05T02:49:37.967Z,6.30
2019-03-05T02:52:48.064Z,6.30
2019-03-05T02:55:54.548Z,6.30
2019-03-05T02:58:22.941Z,6.30
2019-03-05T03:01:20.966Z,6.30
2019-03-05T03:03:54.322Z,6.20
2019-03-05T03:06:30.190Z,6.20
2019-03-05T03:09:43.628Z,6.20
2019-03-05T03:12:13.904Z,6.10
2019-03-05T03:14:44.125Z,6.10
2019-03-05T03:17:14.316Z,6.10
2019-03-05T03:20:02.741Z,6.10
2019-03-05T03:22:51.363Z,6.10
2019-03-05T03:25:39.335Z,6.10
2019-03-05T03:28:27.627Z,6.10
2019-03-05T03:31:15.626Z,6.10
2019-03-05T03:34:03.613Z,6.10
2019-03-05T03:36:51.968Z,6.10
2019-03-05T03:39:39.975Z,6.00
2019-03-05T03:42:28.032Z,6.00
2019-03-05T03:45:17.320Z,5.90
2019-03-05T03:48:05.387Z,5.90
2019-03-05T03:50:53.927Z,5.90
2019-03-05T03:53:42.243Z,6.00
2019-03-05T03:56:30.329Z,6.00
2019-03-05T03:59:18.618Z,6.00
2019-03-05T04:02:06.695Z,6.00
2019-03-05T04:04:55.215Z,5.90
2019-03-05T04:07:43.262Z,5.90
2019-03-05T04:10:26.862Z,5.90
2019-03-05T04:15:58.846Z,5.90
2019-03-05T04:18:28.098Z,5.90
2019-03-05T04:21:16.140Z,5.90
2019-03-05T04:24:06.368Z,5.90
2019-03-05T04:26:54.610Z,5.90
2019-03-05T04:29:42.883Z,5.80
2019-03-05T04:32:30.883Z,5.90
2019-03-05T04:35:19.435Z,5.90
2019-03-05T04:38:07.437Z,5.90
2019-03-05T04:40:55.438Z,5.90
2019-03-05T04:43:43.426Z,5.80
2019-03-05T04:46:50.820Z,5.80
2019-03-05T04:49:58.142Z,5.80
2019-03-05T04:52:46.697Z,5.90
2019-03-05T04:55:34.960Z,5.90
2019-03-05T04:58:23.302Z,5.90
2019-03-05T05:01:12.114Z,5.90
2019-03-05T05:04:00.128Z,5.90
2019-03-05T05:06:48.617Z,5.80
2019-03-05T05:09:37.853Z,5.80
2019-03-05T05:15:33.432Z,5.70
2019-03-05T05:18:21.696Z,5.70
2019-03-05T05:21:10.020Z,5.70
2019-03-05T05:23:58.603Z,5.70
2019-03-05T05:26:47.149Z,5.70
2019-03-05T05:29:35.432Z,5.70
2019-03-05T05:32:23.744Z,5.70
2019-03-05T05:35:12.119Z,5.70
2019-03-05T05:38:00.571Z,5.80
2019-03-05T05:40:48.648Z,5.80
2019-03-05T05:43:36.635Z,5.70
2019-03-05T05:46:24.986Z,5.70
2019-03-05T05:49:13.279Z,5.70
2019-03-05T05:55:12.176Z,5.70
2019-03-05T05:57:42.071Z,5.70
2019-03-05T06:00:15.072Z,5.80
2019-03-05T06:02:44.822Z,5.70
2019-03-05T06:05:14.510Z,5.70
2019-03-05T06:07:44.460Z,5.70
2019-03-05T06:10:15.351Z,5.70
2019-03-05T06:12:45.039Z,5.80
2019-03-05T06:15:14.703Z,5.70
2019-03-05T06:17:44.824Z,5.80
2019-03-05T06:20:14.787Z,5.70
2019-03-05T06:22:44.871Z,5.70
2019-03-05T06:25:14.874Z,5.70
2019-03-05T06:27:44.989Z,5.70
2019-03-05T06:30:15.791Z,5.70
2019-03-05T06:32:45.670Z,5.80
2019-03-05T06:35:15.510Z,5.80
2019-03-05T06:37:45.392Z,5.90
2019-03-05T06:40:16.613Z,5.90
2019-03-05T06:42:46.343Z,5.90
2019-03-05T06:45:17.280Z,5.90
2019-03-05T06:47:47.292Z,5.90
2019-03-05T06:50:16.695Z,5.90
2019-03-05T06:52:45.998Z,5.90
2019-03-05T06:55:15.607Z,5.90
2019-03-05T06:57:46.141Z,5.90
2019-03-05T07:00:28.056Z,5.90
2019-03-05T07:02:57.889Z,6.00
2019-03-05T07:06:03.515Z,6.00
2019-03-05T07:08:33.716Z,6.00
2019-03-05T07:11:21.972Z,6.00
2019-03-05T07:13:51.729Z,6.00
2019-03-05T07:16:47.387Z,6.00
2019-03-05T07:19:57.497Z,6.00
2019-03-05T07:22:40.716Z,6.00
2019-03-05T07:25:10.459Z,6.00
2019-03-05T07:27:47.835Z,6.00
2019-03-05T07:30:36.144Z,6.00
2019-03-05T07:33:12.822Z,6.00
2019-03-05T07:35:42.305Z,6.10
2019-03-05T07:38:12.512Z,6.10
2019-03-05T07:40:42.134Z,6.20
2019-03-05T07:43:12.687Z,6.20
2019-03-05T07:45:43.205Z,6.30
2019-03-05T07:48:12.867Z,6.30
2019-03-05T07:50:42.555Z,6.40
2019-03-05T07:53:12.847Z,6.40
2019-03-05T07:55:42.605Z,6.40
2019-03-05T07:58:12.738Z,6.40
2019-03-05T08:00:44.134Z,6.40
2019-03-05T08:03:14.383Z,6.50
2019-03-05T08:05:44.138Z,6.50
2019-03-05T08:15:28.017Z,6.50
2019-03-05T08:17:57.501Z,6.60
2019-03-05T08:20:28.002Z,6.70
2019-03-05T08:22:57.868Z,6.70
2019-03-05T08:25:27.362Z,6.80
2019-03-05T08:27:57.770Z,6.90
2019-03-05T08:30:27.929Z,6.90
2019-03-05T08:32:58.135Z,7.00
2019-03-05T08:35:27.937Z,7.10
2019-03-05T08:37:57.704Z,7.10
2019-03-05T08:40:27.574Z,7.10
2019-03-05T08:42:57.379Z,7.10
2019-03-05T08:45:29.707Z,7.10
2019-03-05T08:47:58.463Z,7.00
2019-03-05T08:50:28.495Z,7.00
2019-03-05T08:53:17.576Z,7.00
2019-03-05T08:55:46.951Z,7.00
2019-03-05T08:58:16.374Z,7.10
2019-03-05T09:00:48.026Z,7.20
2019-03-05T09:03:17.559Z,7.20
2019-03-05T09:05:48.438Z,7.40
2019-03-05T09:08:17.762Z,7.40
2019-03-05T09:10:47.319Z,7.50
2019-03-05T09:13:17.009Z,7.60
2019-03-05T09:15:46.331Z,7.60
2019-03-05T09:18:16.585Z,7.70
2019-03-05T09:20:46.852Z,7.60
2019-03-05T09:23:16.953Z,7.50
2019-03-05T09:25:46.581Z,7.50
2019-03-05T09:28:16.131Z,7.50
2019-03-05T09:30:45.714Z,7.40
2019-03-05T09:33:15.489Z,7.40
2019-03-05T09:35:45.112Z,7.50
2019-03-05T09:38:15.023Z,7.50
2019-03-05T09:40:44.757Z,7.50
2019-03-05T09:43:14.182Z,7.60
2019-03-05T09:45:44.809Z,7.60
2019-03-05T09:48:14.667Z,7.70
2019-03-05T09:50:45.195Z,7.70
2019-03-05T09:53:14.562Z,7.80
2019-03-05T09:55:43.894Z,7.90
2019-03-05T09:58:13.244Z,7.90
2019-03-05T10:00:43.372Z,8.00
2019-03-05T10:03:13.093Z,8.00
2019-03-05T10:06:37.867Z,8.10
2019-03-05T10:09:08.619Z,8.10
2019-03-05T10:11:38.530Z,8.10
2019-03-05T10:14:08.251Z,8.10
2019-03-05T10:16:39.734Z,8.10
2019-03-05T10:19:10.009Z,8.00
2019-03-05T10:21:46.256Z,8.00
2019-03-05T10:24:11.219Z,7.90
2019-03-05T10:26:59.586Z,7.90
2019-03-05T10:29:35.776Z,7.80
2019-03-05T10:32:05.523Z,7.70
2019-03-05T10:34:35.071Z,7.60
2019-03-05T10:37:13.732Z,7.60
2019-03-05T10:39:37.550Z,7.50
2019-03-05T10:42:08.175Z,7.50
2019-03-05T10:44:39.019Z,7.40
2019-03-05T10:47:08.634Z,7.40
2019-03-05T10:49:38.511Z,7.30
2019-03-05T10:52:08.757Z,7.20
2019-03-05T10:54:38.422Z,7.10
2019-03-05T10:57:08.013Z,7.10
2019-03-05T10:59:38.227Z,7.00
2019-03-05T11:02:08.292Z,6.90
2019-03-05T11:04:45.438Z,6.80
2019-03-05T11:07:09.595Z,6.80
2019-03-05T11:09:39.329Z,6.70
2019-03-05T11:12:09.377Z,6.70
2019-03-05T11:14:39.334Z,6.60
2019-03-05T11:17:09.113Z,6.60
2019-03-05T11:19:38.526Z,6.60
2019-03-05T11:22:09.294Z,6.70
2019-03-05T11:24:39.170Z,6.70
2019-03-05T11:27:08.655Z,6.70
2019-03-05T11:29:38.324Z,6.70
2019-03-05T11:32:08.451Z,6.70
2019-03-05T11:34:37.780Z,6.70
2019-03-05T11:37:07.148Z,6.80
2019-03-05T11:39:55.583Z,6.80
2019-03-05T11:46:51.090Z,6.90
2019-03-05T11:49:21.594Z,7.10
2019-03-05T11:51:50.996Z,7.30
2019-03-05T11:54:21.139Z,7.40
2019-03-05T11:56:50.493Z,7.50
2019-03-05T11:59:20.383Z,7.60
2019-03-05T12:01:51.713Z,7.60
2019-03-05T12:04:21.782Z,7.70
2019-03-05T12:06:51.530Z,7.80
2019-03-05T12:09:21.325Z,7.90
2019-03-05T12:11:53.447Z,7.90
2019-03-05T12:14:24.196Z,7.80
2019-03-05T12:16:54.240Z,7.70
2019-03-05T12:19:24.323Z,7.60
2019-03-05T12:21:53.978Z,7.50
2019-03-05T12:24:24.192Z,7.30
2019-03-05T12:26:55.358Z,7.10
2019-03-05T12:29:44.758Z,6.90
2019-03-05T12:35:50.372Z,6.70
2019-03-05T12:38:20.410Z,6.60
2019-03-05T12:40:50.198Z,6.60
2019-03-05T12:43:20.015Z,6.60
2019-03-05T12:45:49.772Z,6.50
2019-03-05T12:48:19.408Z,6.60
2019-03-05T12:50:49.136Z,6.70
2019-03-05T12:53:19.358Z,6.70
2019-03-05T12:55:49.070Z,6.80
2019-03-05T12:58:20.656Z,6.80
2019-03-05T13:00:50.866Z,6.90
2019-03-05T13:03:20.575Z,7.00
2019-03-05T13:05:49.955Z,7.00
2019-03-05T13:08:19.610Z,7.00
2019-03-05T13:10:49.473Z,7.10
2019-03-05T13:13:19.322Z,7.10
2019-03-05T13:15:48.773Z,7.20
2019-03-05T13:18:18.690Z,7.30
2019-03-05T13:20:48.457Z,7.40
2019-03-05T13:23:18.137Z,7.40
2019-03-05T13:25:47.575Z,7.50
2019-03-05T13:28:17.411Z,7.50
2019-03-05T13:30:47.525Z,7.50
2019-03-05T13:33:17.437Z,7.60
2019-03-05T13:35:47.173Z,7.50
2019-03-05T13:38:16.501Z,7.50
2019-03-05T13:40:45.804Z,7.40
2019-03-05T13:43:15.247Z,7.30
2019-03-05T13:45:49.534Z,7.10
2019-03-05T13:48:23.757Z,7.00
2019-03-05T13:51:59.667Z,7.00
2019-03-05T13:54:56.166Z,6.90
2019-03-05T13:58:15.153Z,6.90
2019-03-05T14:00:52.631Z,7.00
2019-03-05T14:03:26.966Z,7.00
2019-03-05T14:06:30.939Z,7.10
2019-03-05T14:09:13.756Z,7.10
2019-03-05T14:11:44.248Z,7.20
2019-03-05T14:14:26.781Z,7.40
2019-03-05T14:17:01.525Z,7.40
2019-03-05T14:19:31.676Z,7.60
2019-03-05T14:22:19.719Z,7.60
2019-03-05T14:25:15.639Z,7.60
2019-03-05T14:27:45.450Z,7.50
2019-03-05T14:30:36.072Z,7.50
2019-03-05T14:33:05.682Z,7.40
2019-03-05T14:35:35.598Z,7.40
2019-03-05T14:38:05.199Z,7.40
2019-03-05T14:40:34.776Z,7.30
2019-03-05T14:43:06.318Z,7.30
2019-03-05T14:45:37.970Z,7.30
2019-03-05T14:48:07.917Z,7.30
2019-03-05T14:50:37.540Z,7.40
2019-03-05T14:53:07.471Z,7.50
2019-03-05T14:55:37.702Z,7.60
2019-03-05T14:58:07.369Z,7.70
2019-03-05T15:00:37.968Z,7.80
2019-03-05T15:03:07.748Z,7.90
2019-03-05T15:05:39.322Z,7.90
2019-03-05T15:08:08.879Z,8.00
2019-03-05T15:10:38.764Z,8.10
2019-03-05T15:13:16.158Z,8.10
2019-03-05T15:15:41.633Z,8.20
2019-03-05T15:18:13.029Z,8.20
2019-03-05T15:20:42.834Z,8.20
2019-03-05T15:23:13.702Z,8.30
2019-03-05T15:25:43.443Z,8.40
2019-03-05T15:28:13.626Z,8.40
2019-03-05T15:30:43.379Z,8.50
2019-03-05T15:33:13.575Z,8.40
2019-03-05T15:35:43.549Z,8.40
2019-03-05T15:38:15.624Z,8.30
2019-03-05T15:40:45.813Z,8.20
2019-03-05T15:43:16.399Z,8.10
2019-03-05T15:45:46.365Z,8.10
2019-03-05T15:48:16.488Z,8.00
2019-03-05T15:50:58.440Z,7.90
2019-03-05T15:53:36.881Z,7.80
2019-03-05T15:56:01.748Z,7.80
2019-03-05T15:58:34.767Z,7.70
2019-03-05T16:01:04.729Z,7.60
2019-03-05T16:03:35.563Z,7.50
2019-03-05T16:06:05.429Z,7.50
2019-03-05T16:08:36.163Z,7.40
2019-03-05T16:11:05.982Z,7.40
2019-03-05T16:13:35.558Z,7.30
2019-03-05T16:16:05.351Z,7.30
2019-03-05T16:18:39.068Z,7.20
2019-03-05T16:21:07.608Z,7.20
2019-03-05T16:23:37.631Z,7.20
2019-03-05T16:26:07.420Z,7.20
2019-03-05T16:28:39.178Z,7.10
2019-03-05T16:31:17.955Z,7.10
2019-03-05T16:34:13.102Z,7.00
2019-03-05T16:37:05.678Z,7.00
2019-03-05T16:39:50.470Z,6.90
2019-03-05T16:42:37.892Z,6.90
2019-03-05T16:45:14.716Z,6.80
2019-03-05T16:48:03.842Z,6.70
2019-03-05T16:50:56.900Z,6.70
2019-03-05T16:53:36.586Z,6.60
2019-03-05T16:56:23.874Z,6.50
2019-03-05T16:59:21.910Z,6.40
2019-03-05T17:02:01.114Z,6.30
2019-03-05T17:04:49.915Z,6.20
2019-03-05T17:07:47.876Z,6.20
2019-03-05T17:10:36.658Z,6.10
2019-03-05T17:13:05.925Z,6.00
2019-03-05T17:15:35.966Z,6.00
2019-03-05T17:18:06.223Z,5.90
2019-03-05T17:20:36.905Z,5.90
2019-03-05T17:23:26.159Z,5.80
2019-03-05T17:25:57.257Z,5.70
2019-03-05T17:28:26.948Z,5.60
2019-03-05T17:30:57.100Z,5.50
2019-03-05T17:33:27.955Z,5.40
2019-03-05T17:35:57.471Z,5.40
2019-03-05T17:38:30.093Z,5.30
2019-03-05T17:41:00.499Z,5.30
2019-03-05T17:43:30.736Z,5.20
2019-03-05T17:46:00.351Z,5.20
2019-03-05T17:48:31.412Z,5.10
2019-03-05T17:51:01.014Z,5.00
2019-03-05T17:53:38.625Z,5.00
2019-03-05T17:56:08.658Z,4.90
2019-03-05T17:58:38.700Z,4.90
2019-03-05T18:01:09.433Z,4.80
2019-03-05T18:03:39.253Z,4.70
2019-03-05T18:06:09.105Z,4.70
2019-03-05T18:08:39.219Z,4.60
2019-03-05T18:11:08.889Z,4.60
2019-03-05T18:13:43.700Z,4.50
2019-03-05T18:16:16.943Z,4.50
2019-03-05T18:21:43.017Z,4.40
2019-03-05T18:24:18.361Z,4.40
2019-03-05T18:26:48.826Z,4.30
2019-03-05T18:29:20.395Z,4.30
2019-03-05T18:31:50.189Z,4.30
2019-03-05T18:34:19.735Z,4.30
2019-03-05T18:36:49.556Z,4.30
2019-03-05T18:39:22.200Z,4.30
2019-03-05T18:42:10.526Z,4.20
2019-03-05T18:44:47.331Z,4.20
2019-03-05T18:47:35.750Z,4.20
2019-03-05T18:53:42.341Z,4.20
2019-03-05T18:56:12.161Z,4.30
2019-03-05T18:58:42.378Z,4.30
2019-03-05T19:01:11.994Z,4.30
2019-03-05T19:03:42.126Z,4.30
2019-03-05T19:06:12.232Z,4.30
2019-03-05T19:08:42.007Z,4.30
2019-03-05T19:11:11.565Z,4.30
2019-03-05T19:13:45.304Z,4.30
2019-03-05T19:16:15.750Z,4.40
2019-03-05T19:18:49.030Z,4.40
2019-03-05T19:21:20.705Z,4.30
2019-03-05T19:23:50.615Z,4.30
2019-03-05T19:26:25.282Z,4.30
2019-03-05T19:28:56.415Z,4.30
2019-03-05T19:34:19.060Z,4.40
2019-03-05T19:36:48.973Z,4.40
2019-03-05T19:39:20.599Z,4.40
2019-03-05T19:41:56.033Z,4.40
2019-03-05T19:44:25.070Z,4.30
2019-03-05T19:46:54.799Z,4.30
2019-03-05T19:49:24.726Z,4.30
2019-03-05T19:51:55.348Z,4.30
2019-03-05T19:54:25.169Z,4.30
2019-03-05T19:56:55.052Z,4.30
2019-03-05T19:59:24.964Z,4.30
2019-03-05T20:01:55.262Z,4.30
2019-03-05T20:04:25.508Z,4.30
2019-03-05T20:06:55.204Z,4.30
2019-03-05T20:09:25.486Z,4.30
2019-03-05T20:11:55.124Z,4.30
2019-03-05T20:14:25.519Z,4.30
2019-03-05T20:16:55.411Z,4.30
2019-03-05T20:19:27.943Z,4.30
2019-03-05T20:21:58.530Z,4.30
2019-03-05T20:24:28.364Z,4.30
2019-03-05T20:26:59.237Z,4.30
2019-03-05T20:29:28.730Z,4.40
2019-03-05T20:31:58.656Z,4.40
2019-03-05T20:34:28.227Z,4.40
2019-03-05T20:36:58.421Z,4.40
2019-03-05T20:39:31.047Z,4.50
2019-03-05T20:42:00.864Z,4.50
2019-03-05T20:44:31.975Z,4.40
2019-03-05T20:47:01.932Z,4.50
2019-03-05T20:49:37.399Z,4.40
2019-03-05T20:52:09.325Z,4.40
2019-03-05T20:54:38.917Z,4.50
2019-03-05T20:57:12.780Z,4.50
2019-03-05T20:59:43.362Z,4.50
2019-03-05T21:02:13.583Z,4.40
2019-03-05T21:04:43.614Z,4.40
2019-03-05T21:07:13.431Z,4.40
2019-03-05T21:09:45.863Z,4.40
2019-03-05T21:12:15.787Z,4.40
2019-03-05T21:14:45.655Z,4.40
2019-03-05T21:17:15.618Z,4.40
2019-03-05T21:19:47.508Z,4.40
2019-03-05T21:22:18.333Z,4.40
2019-03-05T21:24:50.934Z,4.40
2019-03-05T21:27:24.617Z,4.40
2019-03-05T21:29:55.016Z,4.40
2019-03-05T21:32:25.091Z,4.40
2019-03-05T21:34:57.854Z,4.30
2019-03-05T21:37:28.081Z,4.30
2019-03-05T21:39:59.035Z,4.30
2019-03-05T21:42:28.551Z,4.30
2019-03-05T21:44:58.656Z,4.30
2019-03-05T21:47:28.799Z,4.30
2019-03-05T21:49:59.290Z,4.30
2019-03-05T21:52:29.367Z,4.30
2019-03-05T21:54:59.786Z,4.30
2019-03-05T21:57:29.368Z,4.30
2019-03-05T21:59:59.516Z,4.30
2019-03-05T22:02:29.240Z,4.30
2019-03-05T22:05:01.466Z,4.30
2019-03-05T22:07:31.051Z,4.30
2019-03-05T22:10:01.020Z,4.30
2019-03-05T22:12:31.499Z,4.30
2019-03-05T22:15:01.659Z,4.30
2019-03-05T22:17:31.723Z,4.30
2019-03-05T22:20:01.958Z,4.30
2019-03-05T22:22:50.825Z,4.20
2019-03-05T22:25:20.617Z,4.20
2019-03-05T22:27:50.938Z,4.20
2019-03-05T22:30:24.458Z,4.20
2019-03-05T22:32:53.965Z,4.20
2019-03-05T22:35:24.414Z,4.10
2019-03-05T22:37:54.714Z,4.10
2019-03-05T22:40:24.696Z,4.10
2019-03-05T22:43:02.467Z,4.00
2019-03-05T22:45:32.819Z,4.00
2019-03-05T22:48:03.091Z,4.10
2019-03-05T22:50:33.156Z,4.00
2019-03-05T22:53:03.425Z,4.00
2019-03-05T22:55:33.349Z,4.00
2019-03-05T22:58:03.084Z,4.00
2019-03-05T23:01:14.060Z,4.00
2019-03-05T23:03:48.137Z,4.10
2019-03-05T23:06:18.110Z,4.00
2019-03-05T23:09:08.882Z,4.00
2019-03-05T23:11:39.988Z,4.00
2019-03-05T23:14:13.913Z,4.00
2019-03-05T23:16:44.007Z,4.10
2019-03-05T23:19:15.022Z,4.00
2019-03-05T23:21:45.650Z,4.00
2019-03-05T23:24:15.949Z,4.00
2019-03-05T23:26:48.450Z,4.00
2019-03-05T23:29:19.625Z,4.00
2019-03-05T23:31:58.927Z,4.00
2019-03-05T23:34:28.547Z,4.10
2019-03-05T23:36:59.151Z,4.00
2019-03-05T23:39:32.025Z,4.00
2019-03-05T23:42:01.274Z,4.00
2019-03-05T23:44:32.035Z,4.00
2019-03-05T23:47:02.484Z,4.00
2019-03-05T23:49:32.065Z,4.00
2019-03-05T23:52:02.663Z,4.00
2019-03-05T23:54:33.040Z,4.00
2019-03-05T23:57:03.353Z,4.00
2019-03-05T23:59:34.102Z,4.00
